createdAt,value
2022-08-22T00:03:02.939Z,39.69
2022-08-22T00:03:27.912Z,41.53
2022-08-22T00:08:34.958Z,41.66
2022-08-22T00:13:42.247Z,41.49
2022-08-22T00:18:48.896Z,41.37
2022-08-22T00:23:56.203Z,41.44
2022-08-22T00:29:03.144Z,41.48
2022-08-22T00:34:09.992Z,41.46
2022-08-22T00:39:17.445Z,41.55
2022-08-22T00:44:24.366Z,41.60
2022-08-22T00:49:31.712Z,41.84
2022-08-22T00:54:38.656Z,42.11
2022-08-22T00:59:45.478Z,42.25
2022-08-22T01:04:53.017Z,42.32
2022-08-22T01:09:59.870Z,42.43
2022-08-22T01:15:06.712Z,42.58
2022-08-22T01:20:14.133Z,42.65
2022-08-22T01:25:22.369Z,42.77
2022-08-22T01:30:28.196Z,42.87
2022-08-22T01:35:35.006Z,42.88
2022-08-22T01:40:53.411Z,43.02
2022-08-22T01:45:49.258Z,43.21
2022-08-22T01:50:56.547Z,43.31
2022-08-22T01:56:03.361Z,43.38
2022-08-22T02:01:10.679Z,43.51
2022-08-22T02:06:17.956Z,43.45
2022-08-22T02:11:24.866Z,43.18
2022-08-22T02:16:31.713Z,43.08
2022-08-22T02:21:39.170Z,43.01
2022-08-22T02:26:45.891Z,42.99
2022-08-22T02:31:53.358Z,43.02
2022-08-22T02:37:00.219Z,43.06
2022-08-22T02:42:07.577Z,43.08
2022-08-22T02:47:14.391Z,43.01
2022-08-22T02:52:21.903Z,42.90
2022-08-22T02:57:28.708Z,43.04
2022-08-22T03:02:35.486Z,43.34
2022-08-22T03:07:42.951Z,43.38
2022-08-22T03:12:49.692Z,43.11
2022-08-22T03:17:57.107Z,43.15
2022-08-22T03:23:03.993Z,43.26
2022-08-22T03:28:11.237Z,43.02
2022-08-22T03:33:18.313Z,42.78
2022-08-22T03:38:25.314Z,42.73
2022-08-22T03:43:32.622Z,42.51
2022-08-22T03:48:39.473Z,42.34
2022-08-22T03:53:46.926Z,42.35
2022-08-22T03:58:53.725Z,42.43
2022-08-22T04:04:01.444Z,42.57
2022-08-22T04:09:07.823Z,42.86
2022-08-22T04:14:15.166Z,43.02
2022-08-22T04:19:21.971Z,42.86
2022-08-22T04:24:29.252Z,42.81
2022-08-22T04:29:36.332Z,42.78
2022-08-22T04:34:43.280Z,42.78
2022-08-22T04:39:50.731Z,42.83
2022-08-22T04:44:57.527Z,42.75
2022-08-22T04:50:04.828Z,42.74
2022-08-22T04:55:11.633Z,42.77
2022-08-22T05:00:18.962Z,42.50
2022-08-22T05:05:25.819Z,42.29
2022-08-22T05:10:33.246Z,42.11
2022-08-22T05:15:40.068Z,41.98
2022-08-22T05:20:47.579Z,41.80
2022-08-22T05:25:54.536Z,41.73
2022-08-22T05:31:01.311Z,41.70
2022-08-22T05:36:08.604Z,41.55
2022-08-22T05:41:15.569Z,41.36
2022-08-22T05:46:26.919Z,41.16
2022-08-22T05:51:29.951Z,41.07
2022-08-22T05:56:36.814Z,40.95
2022-08-22T06:01:44.347Z,40.71
2022-08-22T06:06:51.368Z,40.31
2022-08-22T06:11:58.266Z,39.66
2022-08-22T06:17:05.040Z,38.88
2022-08-22T06:22:13.814Z,37.51
2022-08-22T06:27:20.360Z,36.03
2022-08-22T06:32:52.896Z,34.72
2022-08-22T06:37:33.504Z,33.78
2022-08-22T06:42:41.724Z,33.16
2022-08-22T06:47:50.183Z,32.50
2022-08-22T06:52:54.992Z,32.00
2022-08-22T06:58:02.328Z,31.65
2022-08-22T07:03:09.206Z,31.29
2022-08-22T07:08:16.617Z,31.22
2022-08-22T07:13:23.423Z,31.23
2022-08-22T07:18:30.781Z,31.19
2022-08-22T07:23:38.399Z,31.12
2022-08-22T07:28:50.810Z,31.12
2022-08-22T07:33:52.114Z,31.07
2022-08-22T07:38:59.418Z,31.16
2022-08-22T07:44:06.430Z,31.38
2022-08-22T07:49:13.433Z,31.33
2022-08-22T07:54:20.809Z,31.07
2022-08-22T07:59:27.602Z,31.13
2022-08-22T08:04:39.487Z,31.55
2022-08-22T08:09:41.768Z,31.74
2022-08-22T08:14:49.086Z,31.37
2022-08-22T08:19:56.412Z,30.91
2022-08-22T08:25:03.296Z,30.56
2022-08-22T08:25:03.314Z,30.56
2022-08-22T08:30:15.080Z,29.71
2022-08-22T08:35:17.718Z,29.24
2022-08-22T08:40:24.739Z,29.43
2022-08-22T08:45:32.877Z,29.34
2022-08-22T08:50:39.143Z,29.02
2022-08-22T08:55:45.932Z,28.27
2022-08-22T09:00:53.313Z,28.40
2022-08-22T09:06:00.557Z,28.76
2022-08-22T09:11:09.757Z,28.93
2022-08-22T09:16:14.856Z,28.78
2022-08-22T09:21:30.657Z,28.24
2022-08-22T09:26:29.002Z,28.66
2022-08-22T09:31:51.411Z,29.06
2022-08-22T09:36:43.173Z,28.75
2022-08-22T09:41:51.632Z,28.50
2022-08-22T09:46:57.416Z,28.21
2022-08-22T09:52:15.121Z,28.24
2022-08-22T09:57:13.922Z,28.12
2022-08-22T10:02:18.871Z,28.08
2022-08-22T10:07:26.151Z,27.77
2022-08-22T10:12:36.374Z,27.39
2022-08-22T10:17:41.111Z,26.75
2022-08-22T10:22:47.329Z,26.07
2022-08-22T10:27:54.606Z,26.02
2022-08-22T10:33:02.060Z,25.72
2022-08-22T10:38:10.705Z,25.67
2022-08-22T10:43:16.514Z,25.66
2022-08-22T10:48:23.956Z,23.44
2022-08-22T10:53:32.404Z,22.33
2022-08-22T10:58:40.892Z,23.75
2022-08-22T11:08:51.809Z,22.42
2022-08-22T11:13:58.594Z,21.70
2022-08-22T11:19:14.989Z,21.02
2022-08-22T11:24:17.421Z,20.79
2022-08-22T11:29:20.170Z,20.46
2022-08-22T11:34:27.410Z,20.13
2022-08-22T11:39:34.771Z,19.41
2022-08-22T11:44:50.020Z,18.64
2022-08-22T11:49:48.828Z,18.05
2022-08-22T11:54:56.090Z,18.72
2022-08-22T12:00:03.866Z,19.52
2022-08-22T12:05:10.159Z,20.52
2022-08-22T12:10:17.768Z,21.04
2022-08-22T12:15:24.648Z,21.69
2022-08-22T12:20:31.858Z,22.37
2022-08-22T12:25:38.637Z,22.32
2022-08-22T12:30:45.882Z,22.17
2022-08-22T12:35:53.367Z,22.56
2022-08-22T12:41:00.167Z,22.48
2022-08-22T12:46:07.463Z,22.13
2022-08-22T12:51:17.297Z,22.22
2022-08-22T12:56:22.590Z,22.10
2022-08-22T13:01:33.854Z,22.23
2022-08-22T13:06:35.831Z,22.58
2022-08-22T13:11:43.059Z,22.65
2022-08-22T13:16:50.990Z,22.74
2022-08-22T13:21:57.403Z,23.02
2022-08-22T13:27:05.788Z,23.01
2022-08-22T13:32:11.458Z,22.91
2022-08-22T13:37:20.173Z,23.18
2022-08-22T13:42:30.521Z,23.30
2022-08-22T13:47:34.386Z,23.65
2022-08-22T13:52:40.023Z,24.15
2022-08-22T13:57:52.032Z,24.54
2022-08-22T14:02:54.204Z,24.88
2022-08-22T14:08:01.724Z,25.09
2022-08-22T14:13:08.773Z,25.38
2022-08-22T14:18:15.569Z,25.60
2022-08-22T14:23:23.902Z,25.90
2022-08-22T14:28:29.845Z,26.18
2022-08-22T14:33:40.001Z,26.30
2022-08-22T14:38:46.080Z,26.39
2022-08-22T14:43:51.469Z,26.44
2022-08-22T14:48:58.428Z,26.68
2022-08-22T14:54:05.869Z,26.99
2022-08-22T14:59:12.632Z,27.05
2022-08-22T15:04:20.096Z,27.09
2022-08-22T15:09:26.882Z,27.03
2022-08-22T15:14:34.217Z,27.12
2022-08-22T15:24:48.202Z,27.52
2022-08-22T15:29:55.478Z,27.71
2022-08-22T15:35:03.034Z,27.91
2022-08-22T15:35:03.098Z,27.91
2022-08-22T15:40:11.863Z,27.98
2022-08-22T15:45:16.874Z,28.06
2022-08-22T15:50:24.139Z,28.29
2022-08-22T15:55:31.019Z,28.43
2022-08-22T16:00:41.959Z,28.50
2022-08-22T16:05:45.504Z,28.56
2022-08-22T16:10:52.383Z,28.66
2022-08-22T16:15:59.694Z,28.82
2022-08-22T16:21:06.421Z,28.98
2022-08-22T16:26:13.655Z,29.21
2022-08-22T16:31:21.082Z,29.44
2022-08-22T16:36:28.002Z,29.63
2022-08-22T16:41:35.283Z,29.81
2022-08-22T16:46:42.064Z,29.96
2022-08-22T16:51:49.441Z,30.26
2022-08-22T16:56:56.742Z,30.62
2022-08-22T17:02:03.520Z,31.06
2022-08-22T17:07:10.832Z,31.22
2022-08-22T17:12:17.602Z,31.47
2022-08-22T17:17:24.804Z,31.65
2022-08-22T17:22:32.075Z,31.76
2022-08-22T17:27:39.456Z,31.89
2022-08-22T17:32:46.230Z,31.99
2022-08-22T17:37:53.482Z,32.13
2022-08-22T17:43:00.318Z,32.23
2022-08-22T17:48:07.822Z,32.32
2022-08-22T17:53:16.655Z,32.44
2022-08-22T17:58:37.557Z,32.61
2022-08-22T18:03:28.840Z,32.90
2022-08-22T18:08:37.812Z,33.21
2022-08-22T18:13:43.093Z,33.48
2022-08-22T18:18:50.454Z,33.72
2022-08-22T18:23:57.339Z,33.93
2022-08-22T18:29:04.725Z,34.20
2022-08-22T18:34:11.524Z,34.57
2022-08-22T18:39:18.965Z,34.75
2022-08-22T18:44:25.753Z,35.01
2022-08-22T18:49:33.245Z,35.17
2022-08-22T18:54:40.158Z,35.31
2022-08-22T18:59:46.952Z,35.52
2022-08-22T19:04:54.348Z,35.80
2022-08-22T19:10:01.601Z,35.97
2022-08-22T19:15:08.476Z,36.14
2022-08-22T19:20:15.864Z,36.56
2022-08-22T19:25:22.624Z,36.52
2022-08-22T19:30:30.000Z,36.64
2022-08-22T19:35:36.928Z,36.81
2022-08-22T19:40:44.255Z,36.86
2022-08-22T19:45:51.092Z,36.88
2022-08-22T19:50:58.365Z,37.01
2022-08-22T19:56:05.267Z,37.13
2022-08-22T20:01:12.566Z,37.22
2022-08-22T20:06:40.671Z,37.31
2022-08-22T20:11:26.799Z,37.32
2022-08-22T20:16:33.581Z,37.36
2022-08-22T20:21:40.986Z,37.42
2022-08-22T20:27:12.212Z,37.50
2022-08-22T20:31:58.656Z,37.54
2022-08-22T20:37:23.740Z,37.58
2022-08-22T20:42:09.245Z,37.64
2022-08-22T20:47:21.229Z,37.83
2022-08-22T20:52:23.340Z,37.90
2022-08-22T20:57:30.588Z,37.99
2022-08-22T21:02:37.927Z,38.25
2022-08-22T21:07:45.031Z,38.50
2022-08-22T21:12:51.858Z,38.69
2022-08-22T21:17:59.380Z,38.59
2022-08-22T21:23:06.143Z,39.11
2022-08-22T21:28:13.406Z,39.25
2022-08-22T21:33:23.839Z,39.40
2022-08-22T21:38:27.872Z,39.35
2022-08-22T21:43:34.687Z,39.78
2022-08-22T21:48:41.639Z,39.82
2022-08-22T21:58:56.089Z,39.89
2022-08-22T22:04:02.891Z,40.16
2022-08-22T22:09:14.573Z,40.36
2022-08-22T22:14:16.942Z,40.46
2022-08-22T22:19:24.225Z,40.43
2022-08-22T22:24:31.533Z,40.32
2022-08-22T22:29:38.337Z,40.50
2022-08-22T22:34:45.700Z,40.63
2022-08-22T22:39:52.701Z,40.60
2022-08-22T22:45:00.072Z,40.52
2022-08-22T22:50:06.954Z,40.56
2022-08-22T22:55:24.168Z,41.05
2022-08-22T23:00:21.143Z,41.24
2022-08-22T23:05:27.983Z,41.51
2022-08-22T23:10:35.394Z,41.77
2022-08-22T23:15:42.361Z,41.86
2022-08-22T23:20:49.550Z,41.92
2022-08-22T23:25:56.306Z,42.11
2022-08-22T23:31:04.604Z,42.21
2022-08-22T23:36:10.842Z,42.20
2022-08-22T23:41:17.668Z,42.15
2022-08-22T23:46:25.080Z,42.16
2022-08-22T23:51:32.016Z,42.19
2022-08-22T23:56:39.295Z,42.36
